createdAt,value
2023-02-11T00:01:50.464Z,-0.22
2023-02-11T00:03:53.733Z,-0.21
2023-02-11T00:06:01.021Z,-0.19
2023-02-11T00:08:03.880Z,-0.18
2023-02-11T00:10:08.991Z,-0.15
2023-02-11T00:12:12.153Z,-0.11
2023-02-11T00:14:15.126Z,-0.10
2023-02-11T00:16:20.895Z,-0.07
2023-02-11T00:18:24.370Z,-0.00
2023-02-11T00:20:27.278Z,0.07
2023-02-11T00:22:31.757Z,0.11
2023-02-11T00:24:36.239Z,0.14
2023-02-11T00:26:39.253Z,0.16
2023-02-11T00:28:42.759Z,0.18
2023-02-11T00:30:54.976Z,0.20
2023-02-11T00:32:58.099Z,0.21
2023-02-11T00:35:01.414Z,0.21
2023-02-11T00:37:05.458Z,0.20
2023-02-11T00:39:09.424Z,0.21
2023-02-11T00:41:16.128Z,0.21
2023-02-11T00:43:18.705Z,0.18
2023-02-11T00:45:21.560Z,0.16
2023-02-11T00:47:24.538Z,0.16
2023-02-11T00:49:27.384Z,0.15
2023-02-11T00:51:30.228Z,0.15
2023-02-11T00:53:36.171Z,0.14
2023-02-11T00:55:38.822Z,0.10
2023-02-11T00:57:41.676Z,0.04
2023-02-11T00:59:44.489Z,-0.03
2023-02-11T01:01:47.164Z,-0.05
2023-02-11T01:03:49.861Z,-0.05
2023-02-11T01:05:53.047Z,-0.01
2023-02-11T01:07:56.249Z,0.03
2023-02-11T01:09:59.728Z,0.07
2023-02-11T01:12:05.971Z,0.09
2023-02-11T01:14:09.250Z,0.13
2023-02-11T01:16:14.875Z,0.14
2023-02-11T01:18:17.826Z,0.17
2023-02-11T01:20:25.696Z,0.18
2023-02-11T01:22:29.556Z,0.20
2023-02-11T01:24:32.402Z,0.21
2023-02-11T01:26:36.082Z,0.21
2023-02-11T01:28:40.188Z,0.21
2023-02-11T01:30:43.654Z,0.21
2023-02-11T01:32:46.496Z,0.22
2023-02-11T01:34:50.349Z,0.22
2023-02-11T01:37:03.170Z,0.21
2023-02-11T01:39:06.007Z,0.18
2023-02-11T01:41:17.243Z,0.17
2023-02-11T01:43:20.971Z,0.16
2023-02-11T01:45:48.917Z,0.19
2023-02-11T01:47:51.837Z,0.24
2023-02-11T01:50:01.835Z,0.29
2023-02-11T01:52:20.126Z,0.32
2023-02-11T01:54:45.357Z,0.36
2023-02-11T01:57:10.386Z,0.40
2023-02-11T01:59:39.940Z,0.42
2023-02-11T02:01:48.651Z,0.43
2023-02-11T02:03:56.624Z,0.43
2023-02-11T02:06:02.660Z,0.44
2023-02-11T02:08:14.822Z,0.45
2023-02-11T02:10:22.697Z,0.45
2023-02-11T02:12:25.397Z,0.47
2023-02-11T02:14:29.053Z,0.46
2023-02-11T02:16:34.764Z,0.45
2023-02-11T02:19:19.759Z,0.44
2023-02-11T02:21:44.301Z,0.41
2023-02-11T02:24:00.974Z,0.40
2023-02-11T02:26:09.654Z,0.35
2023-02-11T02:28:34.367Z,0.33
2023-02-11T02:30:58.510Z,0.35
2023-02-11T02:33:23.244Z,0.36
2023-02-11T02:35:46.005Z,0.37
2023-02-11T02:38:20.168Z,0.39
2023-02-11T02:40:32.765Z,0.41
2023-02-11T02:42:36.639Z,0.45
2023-02-11T02:44:39.689Z,0.48
2023-02-11T02:46:42.542Z,0.50
2023-02-11T02:48:45.863Z,0.53
2023-02-11T02:50:50.460Z,0.53
2023-02-11T02:53:05.305Z,0.51
2023-02-11T02:55:39.812Z,0.53
2023-02-11T02:57:59.303Z,0.52
2023-02-11T03:00:28.659Z,0.50
2023-02-11T03:02:40.494Z,0.52
2023-02-11T03:05:02.486Z,0.53
2023-02-11T03:07:22.172Z,0.54
2023-02-11T03:09:36.380Z,0.58
2023-02-11T03:11:40.584Z,0.63
2023-02-11T03:13:48.543Z,0.66
2023-02-11T03:15:55.572Z,0.69
2023-02-11T03:18:02.263Z,0.73
2023-02-11T03:20:07.426Z,0.76
2023-02-11T03:22:25.604Z,0.79
2023-02-11T03:24:34.832Z,0.80
2023-02-11T03:26:43.074Z,0.81
2023-02-11T03:29:03.747Z,0.77
2023-02-11T03:31:22.029Z,0.75
2023-02-11T03:33:29.291Z,0.75
2023-02-11T03:35:46.747Z,0.76
2023-02-11T03:37:57.958Z,0.77
2023-02-11T03:40:06.711Z,0.75
2023-02-11T03:42:11.360Z,0.72
2023-02-11T03:44:16.403Z,0.72
2023-02-11T03:46:25.786Z,0.72
2023-02-11T03:48:33.104Z,0.72
2023-02-11T03:50:37.271Z,0.76
2023-02-11T03:52:40.202Z,0.78
2023-02-11T03:54:46.496Z,0.80
2023-02-11T03:56:54.421Z,0.82
2023-02-11T03:58:58.094Z,0.85
2023-02-11T04:01:02.616Z,0.90
2023-02-11T04:03:06.166Z,0.93
2023-02-11T04:05:15.036Z,0.95
2023-02-11T04:07:17.922Z,0.93
2023-02-11T04:09:20.630Z,0.93
2023-02-11T04:11:23.320Z,0.92
2023-02-11T04:13:26.284Z,0.92
2023-02-11T04:15:28.920Z,0.90
2023-02-11T04:17:31.533Z,0.89
2023-02-11T04:19:34.236Z,0.88
2023-02-11T04:21:36.910Z,0.85
2023-02-11T04:23:39.732Z,0.82
2023-02-11T04:25:43.117Z,0.80
2023-02-11T04:27:46.246Z,0.83
2023-02-11T04:29:49.699Z,0.86
2023-02-11T04:31:52.448Z,0.89
2023-02-11T04:33:55.722Z,0.87
2023-02-11T04:35:58.545Z,0.83
2023-02-11T04:38:01.886Z,0.79
2023-02-11T04:40:05.133Z,0.79
2023-02-11T04:42:07.916Z,0.79
2023-02-11T04:44:10.962Z,0.80
2023-02-11T04:46:13.693Z,0.80
2023-02-11T04:48:16.405Z,0.80
2023-02-11T04:50:19.142Z,0.79
2023-02-11T04:52:23.530Z,0.79
2023-02-11T04:54:27.195Z,0.78
2023-02-11T04:56:30.248Z,0.75
2023-02-11T04:58:32.973Z,0.72
2023-02-11T05:00:36.311Z,0.72
2023-02-11T05:02:39.404Z,0.74
2023-02-11T05:04:42.086Z,0.76
2023-02-11T05:06:44.717Z,0.78
2023-02-11T05:08:47.482Z,0.80
2023-02-11T05:10:50.264Z,0.83
2023-02-11T05:12:55.404Z,0.84
2023-02-11T05:15:01.423Z,0.84
2023-02-11T05:17:07.080Z,0.82
2023-02-11T05:19:10.060Z,0.82
2023-02-11T05:21:16.352Z,0.83
2023-02-11T05:23:20.779Z,0.84
2023-02-11T05:25:23.666Z,0.83
2023-02-11T05:27:26.287Z,0.79
2023-02-11T05:29:28.918Z,0.72
2023-02-11T05:31:32.757Z,0.67
2023-02-11T05:33:35.786Z,0.60
2023-02-11T05:35:38.570Z,0.58
2023-02-11T05:37:41.146Z,0.57
2023-02-11T05:39:43.800Z,0.54
2023-02-11T05:41:46.449Z,0.54
2023-02-11T05:43:52.529Z,0.58
2023-02-11T05:45:56.190Z,0.62
2023-02-11T05:47:59.633Z,0.67
2023-02-11T05:50:02.651Z,0.69
2023-02-11T05:52:05.287Z,0.72
2023-02-11T05:54:09.200Z,0.75
2023-02-11T05:56:14.524Z,0.76
2023-02-11T05:58:19.261Z,0.77
2023-02-11T06:00:22.272Z,0.76
2023-02-11T06:02:25.833Z,0.74
2023-02-11T06:04:29.725Z,0.74
2023-02-11T06:06:33.754Z,0.76
2023-02-11T06:08:39.066Z,0.76
2023-02-11T06:10:45.504Z,0.76
2023-02-11T06:12:48.750Z,0.78
2023-02-11T06:14:52.256Z,0.80
2023-02-11T06:16:56.770Z,0.82
2023-02-11T06:19:00.253Z,0.88
2023-02-11T06:21:07.879Z,0.91
2023-02-11T06:23:10.564Z,0.93
2023-02-11T06:25:13.788Z,0.96
2023-02-11T06:27:17.517Z,0.97
2023-02-11T06:29:20.722Z,0.98
2023-02-11T06:31:23.758Z,1.00
2023-02-11T06:33:26.572Z,0.97
2023-02-11T06:35:29.420Z,0.98
2023-02-11T06:37:34.697Z,0.98
2023-02-11T06:39:37.785Z,0.95
2023-02-11T06:41:40.911Z,0.94
2023-02-11T06:43:44.926Z,0.95
2023-02-11T06:45:54.544Z,0.95
2023-02-11T06:47:57.743Z,0.95
2023-02-11T06:50:03.149Z,0.95
2023-02-11T06:52:06.203Z,0.97
2023-02-11T06:54:09.506Z,1.01
2023-02-11T06:56:16.147Z,1.05
2023-02-11T06:58:18.822Z,1.05
2023-02-11T07:00:22.305Z,1.08
2023-02-11T07:02:25.001Z,1.12
2023-02-11T07:04:27.683Z,1.16
2023-02-11T07:06:31.715Z,1.19
2023-02-11T07:08:37.547Z,1.21
2023-02-11T07:10:41.054Z,1.23
2023-02-11T07:12:44.130Z,1.24
2023-02-11T07:14:46.906Z,1.25
2023-02-11T07:16:49.941Z,1.26
2023-02-11T07:18:52.846Z,1.27
2023-02-11T07:20:55.420Z,1.28
2023-02-11T07:23:00.027Z,1.28
2023-02-11T07:25:02.812Z,1.30
2023-02-11T07:27:05.456Z,1.32
2023-02-11T07:29:08.376Z,1.34
2023-02-11T07:31:14.091Z,1.37
2023-02-11T07:33:17.141Z,1.40
2023-02-11T07:35:27.562Z,1.41
2023-02-11T07:37:30.397Z,1.43
2023-02-11T07:39:33.144Z,1.45
2023-02-11T07:41:37.862Z,1.46
2023-02-11T07:43:41.864Z,1.49
2023-02-11T07:45:44.950Z,1.51
2023-02-11T07:47:47.650Z,1.50
2023-02-11T07:49:51.060Z,1.48
2023-02-11T07:51:53.869Z,1.49
2023-02-11T07:53:58.758Z,1.47
2023-02-11T07:56:03.278Z,1.47
2023-02-11T07:58:05.998Z,1.49
2023-02-11T08:00:09.411Z,1.50
2023-02-11T08:02:15.031Z,1.52
2023-02-11T08:04:17.816Z,1.58
2023-02-11T08:06:22.464Z,1.64
2023-02-11T08:08:28.334Z,1.72
2023-02-11T08:10:31.273Z,1.78
2023-02-11T08:12:34.500Z,1.81
2023-02-11T08:14:37.540Z,1.87
2023-02-11T08:16:41.531Z,1.88
2023-02-11T08:18:44.659Z,1.90
2023-02-11T08:20:47.402Z,1.93
2023-02-11T08:22:50.300Z,1.98
2023-02-11T08:24:52.990Z,2.01
2023-02-11T08:26:55.640Z,2.03
2023-02-11T08:28:59.204Z,2.04
2023-02-11T08:31:10.048Z,2.06
2023-02-11T08:33:13.238Z,2.09
2023-02-11T08:35:15.858Z,2.09
2023-02-11T08:37:20.266Z,2.09
2023-02-11T08:39:23.079Z,2.11
2023-02-11T08:41:26.774Z,2.16
2023-02-11T08:43:29.960Z,2.22
2023-02-11T08:45:36.037Z,2.27
2023-02-11T08:47:39.815Z,2.31
2023-02-11T08:49:42.504Z,2.34
2023-02-11T08:51:47.273Z,2.37
2023-02-11T08:53:51.572Z,2.40
2023-02-11T08:55:55.809Z,2.43
2023-02-11T08:57:58.426Z,2.45
2023-02-11T09:00:01.268Z,2.48
2023-02-11T09:02:03.939Z,2.52
2023-02-11T09:04:06.868Z,2.56
2023-02-11T09:06:11.684Z,2.60
2023-02-11T09:08:16.908Z,2.63
2023-02-11T09:10:20.328Z,2.66
2023-02-11T09:12:23.146Z,2.68
2023-02-11T09:14:26.332Z,2.70
2023-02-11T09:16:32.010Z,2.75
2023-02-11T09:18:34.724Z,2.82
2023-02-11T09:20:37.748Z,2.88
2023-02-11T09:22:40.365Z,2.92
2023-02-11T09:24:43.001Z,2.95
2023-02-11T09:26:45.656Z,2.96
2023-02-11T09:28:49.531Z,2.99
2023-02-11T09:30:52.423Z,3.00
2023-02-11T09:32:55.227Z,3.01
2023-02-11T09:34:57.807Z,3.03
2023-02-11T09:37:00.412Z,3.05
2023-02-11T09:39:05.644Z,3.07
2023-02-11T09:41:23.802Z,3.09
2023-02-11T09:43:45.659Z,3.13
2023-02-11T09:45:50.141Z,3.18
2023-02-11T09:47:56.872Z,3.24
2023-02-11T09:50:06.612Z,3.29
2023-02-11T09:52:34.095Z,3.37
2023-02-11T09:54:52.068Z,3.42
2023-02-11T09:56:56.926Z,3.48
2023-02-11T09:58:59.793Z,3.52
2023-02-11T10:01:19.383Z,3.57
2023-02-11T10:03:41.407Z,3.61
2023-02-11T10:06:27.840Z,3.65
2023-02-11T10:08:42.356Z,3.68
2023-02-11T10:10:54.704Z,3.70
2023-02-11T10:13:03.273Z,3.72
2023-02-11T10:15:32.614Z,3.72
2023-02-11T10:17:44.812Z,3.73
2023-02-11T10:20:02.830Z,3.73
2023-02-11T10:22:18.329Z,3.75
2023-02-11T10:24:22.144Z,3.76
2023-02-11T10:26:30.919Z,3.77
2023-02-11T10:28:35.025Z,3.78
2023-02-11T10:30:46.638Z,3.80
2023-02-11T10:32:59.704Z,3.85
2023-02-11T10:35:10.268Z,3.92
2023-02-11T10:37:14.789Z,3.99
2023-02-11T10:39:23.898Z,4.05
2023-02-11T10:41:33.190Z,4.10
2023-02-11T10:43:37.053Z,4.14
2023-02-11T10:46:00.292Z,4.19
2023-02-11T10:48:06.388Z,4.23
2023-02-11T10:50:23.411Z,4.26
2023-02-11T10:52:31.743Z,4.27
2023-02-11T10:54:34.388Z,4.27
2023-02-11T10:56:44.489Z,4.26
2023-02-11T10:58:57.543Z,4.25
2023-02-11T11:01:01.588Z,4.24
2023-02-11T11:03:18.821Z,4.22
2023-02-11T11:05:28.604Z,4.21
2023-02-11T11:07:33.890Z,4.21
2023-02-11T11:09:47.373Z,4.21
2023-02-11T11:11:53.893Z,4.22
2023-02-11T11:13:59.441Z,4.22
2023-02-11T11:16:09.930Z,4.21
2023-02-11T11:18:23.016Z,4.22
2023-02-11T11:20:29.016Z,4.23
2023-02-11T11:22:31.845Z,4.27
2023-02-11T11:24:46.602Z,4.31
2023-02-11T11:26:55.782Z,4.36
2023-02-11T11:29:08.054Z,4.39
2023-02-11T11:31:24.644Z,4.40
2023-02-11T11:33:31.134Z,4.44
2023-02-11T11:35:33.962Z,4.47
2023-02-11T11:37:38.762Z,4.49
2023-02-11T11:39:42.728Z,4.49
2023-02-11T11:42:01.127Z,4.50
2023-02-11T11:44:25.405Z,4.48
2023-02-11T11:46:42.838Z,4.47
2023-02-11T11:48:50.092Z,4.47
2023-02-11T11:51:02.213Z,4.48
2023-02-11T11:53:16.832Z,4.49
2023-02-11T11:55:27.337Z,4.50
2023-02-11T11:57:31.372Z,4.50
2023-02-11T11:59:34.292Z,4.50
2023-02-11T12:01:46.120Z,4.51
2023-02-11T12:04:23.257Z,4.55
2023-02-11T12:06:35.683Z,4.59
2023-02-11T12:08:59.533Z,4.63
2023-02-11T12:11:17.895Z,4.68
2023-02-11T12:13:26.084Z,4.70
2023-02-11T12:16:02.885Z,4.71
2023-02-11T12:18:38.611Z,4.72
2023-02-11T12:21:06.541Z,4.71
2023-02-11T12:23:30.843Z,4.71
2023-02-11T12:25:51.088Z,4.72
2023-02-11T12:28:03.292Z,4.72
2023-02-11T12:30:15.333Z,4.73
2023-02-11T12:32:36.417Z,4.73
2023-02-11T12:35:07.306Z,4.71
2023-02-11T12:37:31.689Z,4.69
2023-02-11T12:39:45.189Z,4.68
2023-02-11T12:42:23.627Z,4.68
2023-02-11T12:45:03.998Z,4.66
2023-02-11T12:47:17.948Z,4.66
2023-02-11T12:50:00.731Z,4.70
2023-02-11T12:52:36.279Z,4.75
2023-02-11T12:54:52.180Z,4.77
2023-02-11T12:57:04.061Z,4.81
2023-02-11T12:59:15.135Z,4.85
2023-02-11T13:01:21.709Z,4.88
2023-02-11T13:03:35.206Z,4.90
2023-02-11T13:05:51.382Z,4.92
2023-02-11T13:08:02.043Z,4.93
2023-02-11T13:10:13.679Z,4.96
2023-02-11T13:12:36.419Z,4.97
2023-02-11T13:14:41.170Z,4.96
2023-02-11T13:16:52.128Z,4.94
2023-02-11T13:19:10.319Z,4.93
2023-02-11T13:21:38.901Z,4.92
2023-02-11T13:24:06.706Z,4.91
2023-02-11T13:26:19.136Z,4.90
2023-02-11T13:28:34.648Z,4.89
2023-02-11T13:30:46.773Z,4.87
2023-02-11T13:33:00.561Z,4.89
2023-02-11T13:35:03.722Z,4.91
2023-02-11T13:37:26.616Z,4.93
2023-02-11T13:39:29.288Z,4.95
2023-02-11T13:41:39.146Z,4.96
2023-02-11T13:43:44.246Z,4.97
2023-02-11T13:45:49.503Z,4.99
2023-02-11T13:47:58.571Z,5.01
2023-02-11T13:50:06.468Z,5.03
2023-02-11T13:52:31.615Z,5.04
2023-02-11T13:54:39.591Z,5.04
2023-02-11T13:56:44.198Z,5.05
2023-02-11T13:58:49.652Z,5.06
2023-02-11T14:00:52.909Z,5.06
2023-02-11T14:03:30.000Z,5.07
2023-02-11T14:05:52.620Z,5.07
2023-02-11T14:08:37.462Z,5.05
2023-02-11T14:10:41.180Z,5.06
2023-02-11T14:13:04.063Z,5.08
2023-02-11T14:15:07.987Z,5.12
2023-02-11T14:17:10.912Z,5.16
2023-02-11T14:19:44.484Z,5.19
2023-02-11T14:21:47.909Z,5.23
2023-02-11T14:23:56.183Z,5.26
2023-02-11T14:26:28.795Z,5.29
2023-02-11T14:28:34.405Z,5.31
2023-02-11T14:30:48.710Z,5.34
2023-02-11T14:33:03.787Z,5.35
2023-02-11T14:35:16.028Z,5.35
2023-02-11T14:37:33.958Z,5.36
2023-02-11T14:39:52.777Z,5.36
2023-02-11T14:41:56.138Z,5.35
2023-02-11T14:44:04.264Z,5.34
2023-02-11T14:46:08.496Z,5.33
2023-02-11T14:48:17.836Z,5.33
2023-02-11T14:50:26.945Z,5.33
2023-02-11T14:52:33.018Z,5.32
2023-02-11T14:54:37.035Z,5.35
2023-02-11T14:56:42.299Z,5.40
2023-02-11T14:58:51.776Z,5.44
2023-02-11T15:01:01.422Z,5.49
2023-02-11T15:03:05.042Z,5.52
2023-02-11T15:05:34.703Z,5.54
2023-02-11T15:07:50.536Z,5.56
2023-02-11T15:09:54.374Z,5.57
2023-02-11T15:11:58.264Z,5.56
2023-02-11T15:14:11.064Z,5.56
2023-02-11T15:16:28.737Z,5.57
2023-02-11T15:18:42.120Z,5.56
2023-02-11T15:20:45.224Z,5.55
2023-02-11T15:22:54.802Z,5.53
2023-02-11T15:25:06.965Z,5.51
2023-02-11T15:27:18.607Z,5.49
2023-02-11T15:29:26.858Z,5.49
2023-02-11T15:31:35.082Z,5.49
2023-02-11T15:33:38.223Z,5.48
2023-02-11T15:35:42.842Z,5.51
2023-02-11T15:37:48.831Z,5.55
2023-02-11T15:40:07.652Z,5.56
2023-02-11T15:42:19.096Z,5.59
2023-02-11T15:44:30.269Z,5.61
2023-02-11T15:46:39.954Z,5.63
2023-02-11T15:48:52.575Z,5.63
2023-02-11T15:51:03.685Z,5.65
2023-02-11T15:53:31.612Z,5.64
2023-02-11T15:55:35.664Z,5.64
2023-02-11T15:57:53.896Z,5.64
2023-02-11T15:59:58.743Z,5.63
2023-02-11T16:02:17.440Z,5.60
2023-02-11T16:04:23.455Z,5.58
2023-02-11T16:06:42.650Z,5.56
2023-02-11T16:09:20.794Z,5.54
2023-02-11T16:11:38.893Z,5.52
2023-02-11T16:13:46.500Z,5.52
2023-02-11T16:15:58.659Z,5.50
2023-02-11T16:18:04.404Z,5.53
2023-02-11T16:20:17.698Z,5.56
2023-02-11T16:22:30.456Z,5.57
2023-02-11T16:24:35.915Z,5.61
2023-02-11T16:26:44.032Z,5.63
2023-02-11T16:28:51.204Z,5.66
2023-02-11T16:30:56.845Z,5.68
2023-02-11T16:33:00.955Z,5.69
2023-02-11T16:35:10.852Z,5.69
2023-02-11T16:37:13.753Z,5.69
2023-02-11T16:39:18.146Z,5.70
2023-02-11T16:41:21.886Z,5.70
2023-02-11T16:43:24.669Z,5.71
2023-02-11T16:45:28.519Z,5.70
2023-02-11T16:47:32.249Z,5.69
2023-02-11T16:49:41.585Z,5.68
2023-02-11T16:51:48.436Z,5.67
2023-02-11T16:53:51.338Z,5.65
2023-02-11T16:55:54.413Z,5.64
2023-02-11T16:57:58.391Z,5.64
2023-02-11T17:00:01.202Z,5.66
2023-02-11T17:02:04.130Z,5.67
2023-02-11T17:04:17.882Z,5.70
2023-02-11T17:06:21.438Z,5.71
2023-02-11T17:08:24.285Z,5.73
2023-02-11T17:10:27.092Z,5.75
2023-02-11T17:12:31.013Z,5.76
2023-02-11T17:14:34.337Z,5.76
2023-02-11T17:16:37.192Z,5.77
2023-02-11T17:18:40.129Z,5.76
2023-02-11T17:20:44.301Z,5.75
2023-02-11T17:22:48.221Z,5.74
2023-02-11T17:24:55.010Z,5.74
2023-02-11T17:26:59.418Z,5.74
2023-02-11T17:29:09.055Z,5.73
2023-02-11T17:31:12.649Z,5.72
2023-02-11T17:33:19.021Z,5.71
2023-02-11T17:35:22.499Z,5.71
2023-02-11T17:37:25.821Z,5.71
2023-02-11T17:39:29.454Z,5.75
2023-02-11T17:41:33.293Z,5.78
2023-02-11T17:43:36.713Z,5.80
2023-02-11T17:45:42.763Z,5.82
2023-02-11T17:47:46.149Z,5.83
2023-02-11T17:49:49.329Z,5.85
2023-02-11T17:51:52.766Z,5.86
2023-02-11T17:53:59.197Z,5.88
2023-02-11T17:56:06.404Z,5.88
2023-02-11T17:58:09.473Z,5.87
2023-02-11T18:00:13.098Z,5.87
2023-02-11T18:02:16.245Z,5.85
2023-02-11T18:04:19.925Z,5.84
2023-02-11T18:06:23.149Z,5.83
2023-02-11T18:08:27.837Z,5.80
2023-02-11T18:10:31.980Z,5.79
2023-02-11T18:12:36.335Z,5.79
2023-02-11T18:14:43.290Z,5.79
2023-02-11T18:16:48.990Z,5.81
2023-02-11T18:18:56.219Z,5.83
2023-02-11T18:21:01.404Z,5.84
2023-02-11T18:23:05.485Z,5.86
2023-02-11T18:25:13.346Z,5.88
2023-02-11T18:27:16.798Z,5.91
2023-02-11T18:29:19.675Z,5.92
2023-02-11T18:31:22.858Z,5.93
2023-02-11T18:33:27.501Z,5.93
2023-02-11T18:35:32.001Z,5.93
2023-02-11T18:37:34.686Z,5.92
2023-02-11T18:39:40.945Z,5.92
2023-02-11T18:41:47.456Z,5.90
2023-02-11T18:43:58.467Z,5.89
2023-02-11T18:46:09.554Z,5.88
2023-02-11T18:48:15.487Z,5.86
2023-02-11T18:50:22.779Z,5.84
2023-02-11T18:52:26.371Z,5.83
2023-02-11T18:54:29.849Z,5.85
2023-02-11T18:56:34.195Z,5.89
2023-02-11T18:58:41.302Z,5.92
2023-02-11T19:00:47.506Z,5.94
2023-02-11T19:02:53.037Z,5.95
2023-02-11T19:04:57.610Z,5.98
2023-02-11T19:07:03.801Z,5.97
2023-02-11T19:09:11.232Z,5.97
2023-02-11T19:11:16.245Z,5.98
2023-02-11T19:13:19.613Z,5.98
2023-02-11T19:15:24.043Z,5.96
2023-02-11T19:17:27.937Z,5.95
2023-02-11T19:19:36.878Z,5.94
2023-02-11T19:21:44.164Z,5.92
2023-02-11T19:23:51.896Z,5.91
2023-02-11T19:25:58.311Z,5.91
2023-02-11T19:28:03.226Z,5.91
2023-02-11T19:30:08.154Z,5.90
2023-02-11T19:32:12.868Z,5.92
2023-02-11T19:34:17.598Z,5.94
2023-02-11T19:36:21.850Z,5.98
2023-02-11T19:38:28.452Z,5.99
2023-02-11T19:40:34.804Z,6.01
2023-02-11T19:42:39.209Z,6.02
2023-02-11T19:44:42.431Z,6.04
2023-02-11T19:46:52.776Z,6.06
2023-02-11T19:48:55.775Z,6.06
2023-02-11T19:50:59.015Z,6.06
2023-02-11T19:53:02.688Z,6.05
2023-02-11T19:55:05.678Z,6.03
2023-02-11T19:57:09.857Z,6.00
2023-02-11T19:59:15.496Z,5.98
2023-02-11T20:01:21.984Z,5.98
2023-02-11T20:03:25.560Z,5.96
2023-02-11T20:05:30.674Z,5.94
2023-02-11T20:07:38.040Z,5.92
2023-02-11T20:09:42.643Z,5.95
2023-02-11T20:11:49.069Z,5.98
2023-02-11T20:13:53.088Z,6.00
2023-02-11T20:15:56.004Z,6.01
2023-02-11T20:18:01.707Z,6.02
2023-02-11T20:20:11.329Z,6.03
2023-02-11T20:22:16.594Z,6.04
2023-02-11T20:24:22.734Z,6.05
2023-02-11T20:26:32.997Z,6.05
2023-02-11T20:28:37.267Z,6.05
2023-02-11T20:30:41.479Z,6.06
2023-02-11T20:32:44.790Z,6.07
2023-02-11T20:34:47.678Z,6.07
2023-02-11T20:36:52.324Z,6.07
2023-02-11T20:38:56.684Z,6.07
2023-02-11T20:41:07.990Z,6.07
2023-02-11T20:43:12.328Z,6.05
2023-02-11T20:45:16.248Z,6.04
2023-02-11T20:47:20.387Z,6.04
2023-02-11T20:49:25.191Z,6.06
2023-02-11T20:51:33.048Z,6.09
2023-02-11T20:53:39.997Z,6.12
2023-02-11T20:55:44.047Z,6.13
2023-02-11T20:57:47.383Z,6.14
2023-02-11T20:59:50.498Z,6.15
2023-02-11T21:01:56.038Z,6.16
2023-02-11T21:04:06.795Z,6.16
2023-02-11T21:06:11.862Z,6.16
2023-02-11T21:08:16.238Z,6.16
2023-02-11T21:10:24.129Z,6.15
2023-02-11T21:12:28.646Z,6.15
2023-02-11T21:14:34.199Z,6.12
2023-02-11T21:16:47.715Z,6.11
2023-02-11T21:18:52.981Z,6.08
2023-02-11T21:20:59.127Z,6.06
2023-02-11T21:23:02.403Z,6.05
2023-02-11T21:25:08.690Z,6.03
2023-02-11T21:27:12.347Z,6.05
2023-02-11T21:29:17.225Z,6.06
2023-02-11T21:31:34.061Z,6.07
2023-02-11T21:33:39.791Z,6.07
2023-02-11T21:35:43.248Z,6.08
2023-02-11T21:37:48.168Z,6.09
2023-02-11T21:39:51.029Z,6.10
2023-02-11T21:41:55.973Z,6.09
2023-02-11T21:43:59.820Z,6.10
2023-02-11T21:46:08.861Z,6.09
2023-02-11T21:48:13.208Z,6.10
2023-02-11T21:50:16.169Z,6.10
2023-02-11T21:52:19.558Z,6.08
2023-02-11T21:54:25.910Z,6.05
2023-02-11T21:56:31.466Z,6.03
2023-02-11T21:58:35.706Z,6.03
2023-02-11T22:00:40.890Z,6.02
2023-02-11T22:02:44.229Z,6.00
2023-02-11T22:04:47.866Z,6.01
2023-02-11T22:06:52.782Z,6.02
2023-02-11T22:09:10.730Z,6.04
2023-02-11T22:11:14.525Z,6.03
2023-02-11T22:13:17.137Z,6.02
2023-02-11T22:15:20.487Z,6.02
2023-02-11T22:17:23.398Z,6.02
2023-02-11T22:19:26.070Z,6.00
2023-02-11T22:21:29.697Z,5.99
2023-02-11T22:23:33.439Z,5.98
2023-02-11T22:25:36.848Z,5.95
2023-02-11T22:27:40.828Z,5.92
2023-02-11T22:29:43.904Z,5.90
2023-02-11T22:31:47.720Z,5.86
2023-02-11T22:33:50.363Z,5.81
2023-02-11T22:36:06.489Z,5.78
2023-02-11T22:38:10.507Z,5.74
2023-02-11T22:40:14.457Z,5.73
2023-02-11T22:42:17.477Z,5.73
2023-02-11T22:44:21.898Z,5.75
2023-02-11T22:46:25.264Z,5.75
2023-02-11T22:48:28.280Z,5.75
2023-02-11T22:50:31.025Z,5.75
2023-02-11T22:52:36.331Z,5.74
2023-02-11T22:54:38.955Z,5.72
2023-02-11T22:56:42.555Z,5.72
2023-02-11T22:58:45.310Z,5.72
2023-02-11T23:00:48.336Z,5.72
2023-02-11T23:02:51.115Z,5.71
2023-02-11T23:04:54.523Z,5.71
2023-02-11T23:06:57.529Z,5.70
2023-02-11T23:09:00.308Z,5.69
2023-02-11T23:11:09.806Z,5.68
2023-02-11T23:13:12.914Z,5.68
2023-02-11T23:15:15.501Z,5.67
2023-02-11T23:17:19.631Z,5.66
2023-02-11T23:19:22.857Z,5.69
2023-02-11T23:21:28.669Z,5.73
2023-02-11T23:23:31.465Z,5.74
2023-02-11T23:25:34.946Z,5.76
2023-02-11T23:27:38.067Z,5.78
2023-02-11T23:29:40.896Z,5.79
2023-02-11T23:31:46.231Z,5.80
2023-02-11T23:33:49.311Z,5.80
2023-02-11T23:35:52.153Z,5.80
2023-02-11T23:37:55.055Z,5.80
2023-02-11T23:39:57.978Z,5.80
2023-02-11T23:42:01.595Z,5.79
2023-02-11T23:44:04.794Z,5.79
2023-02-11T23:46:07.970Z,5.78
2023-02-11T23:48:10.898Z,5.76
2023-02-11T23:50:14.230Z,5.74
2023-02-11T23:52:16.878Z,5.71
2023-02-11T23:54:20.027Z,5.69
2023-02-11T23:56:28.206Z,5.69
2023-02-11T23:58:30.962Z,5.71
